N70CR MWCR-MUHA
Flight info
| Callsign | N70CR |
|---|---|
| Flight time | 0h 44m |
| Altitude | 39000 |
| Route | ATUVI1 ATUVI DCT UCL DUTAN1A |
| Aircraft | C700/M-SBDGHM1RWXY/LB2 |
Departure
| Time | 2026-04-26 00:40 |
|---|---|
| Airport | Owen Roberts International Airport (MWCR) |
Arrival
| Time | 2026-04-26 01:24 |
|---|---|
| Airport | José Martí International Airport (MUHA) |
| Time | Latitude | Longitude | Altitude | Speed | Heading |
|---|---|---|---|---|---|
| 2026-04-26 00:22 | 19.29305 | -81.36299 | 11 ft | 0 kts | 356° |
| 2026-04-26 00:36 | 19.29308 | -81.36293 | 11 ft | 1 kts | 89° |
| 2026-04-26 00:36 | 19.29298 | -81.36294 | 11 ft | 4 kts | 208° |
| 2026-04-26 00:36 | 19.29246 | -81.36313 | 11 ft | 6 kts | 174° |
| 2026-04-26 00:36 | 19.29210 | -81.36304 | 11 ft | 9 kts | 167° |
| 2026-04-26 00:37 | 19.29167 | -81.36222 | 11 ft | 22 kts | 82° |
| 2026-04-26 00:37 | 19.29222 | -81.36009 | 10 ft | 33 kts | 75° |
| 2026-04-26 00:37 | 19.29280 | -81.35774 | 9 ft | 25 kts | 75° |
| 2026-04-26 00:37 | 19.29313 | -81.35632 | 10 ft | 21 kts | 75° |
| 2026-04-26 00:38 | 19.29354 | -81.35471 | 8 ft | 25 kts | 74° |
| 2026-04-26 00:38 | 19.29389 | -81.35311 | 9 ft | 16 kts | 76° |
| 2026-04-26 00:38 | 19.29417 | -81.35188 | 10 ft | 19 kts | 77° |
| 2026-04-26 00:38 | 19.29455 | -81.35044 | 11 ft | 22 kts | 75° |
| 2026-04-26 00:39 | 19.29488 | -81.34907 | 12 ft | 14 kts | 73° |
| 2026-04-26 00:39 | 19.29537 | -81.34817 | 12 ft | 15 kts | 107° |
| 2026-04-26 00:39 | 19.29491 | -81.34789 | 12 ft | 1 kts | 208° |
| 2026-04-26 00:39 | 19.29491 | -81.34808 | 12 ft | 9 kts | 271° |
| 2026-04-26 00:40 | 19.29487 | -81.34884 | 12 ft | 0 kts | 261° |
| 2026-04-26 00:40 | 19.29471 | -81.34975 | 11 ft | 48 kts | 258° |
| 2026-04-26 00:40 | 19.29294 | -81.35697 | 55 ft | 147 kts | 257° |
| 2026-04-26 00:40 | 19.29038 | -81.36906 | 722 ft | 176 kts | 257° |
| 2026-04-26 00:41 | 19.28769 | -81.38150 | 1183 ft | 173 kts | 257° |
| 2026-04-26 00:41 | 19.28490 | -81.39384 | 1522 ft | 170 kts | 257° |
| 2026-04-26 00:41 | 19.28198 | -81.40587 | 1838 ft | 168 kts | 256° |
| 2026-04-26 00:41 | 19.28171 | -81.41805 | 2047 ft | 170 kts | 294° |
| 2026-04-26 00:42 | 19.29005 | -81.42575 | 2327 ft | 170 kts | 343° |
| 2026-04-26 00:42 | 19.30113 | -81.42379 | 2663 ft | 168 kts | 34° |
| 2026-04-26 00:42 | 19.31088 | -81.41604 | 3016 ft | 191 kts | 33° |
| 2026-04-26 00:42 | 19.32318 | -81.40951 | 3491 ft | 204 kts | 19° |
| 2026-04-26 00:43 | 19.33741 | -81.40660 | 3834 ft | 211 kts | 2° |
| 2026-04-26 00:43 | 19.35220 | -81.40712 | 4187 ft | 219 kts | 354° |
| 2026-04-26 00:43 | 19.36867 | -81.40811 | 5043 ft | 252 kts | 357° |
| 2026-04-26 00:43 | 19.38691 | -81.40843 | 6493 ft | 266 kts | 359° |
| 2026-04-26 00:44 | 19.40519 | -81.40871 | 8241 ft | 267 kts | 358° |
| 2026-04-26 00:44 | 19.42396 | -81.40909 | 9937 ft | 272 kts | 358° |
| 2026-04-26 00:44 | 19.44353 | -81.40951 | 11156 ft | 294 kts | 358° |
| 2026-04-26 00:44 | 19.46473 | -81.40996 | 12385 ft | 310 kts | 358° |
| 2026-04-26 00:45 | 19.48651 | -81.41037 | 13915 ft | 317 kts | 358° |
| 2026-04-26 00:45 | 19.50895 | -81.41083 | 15171 ft | 327 kts | 356° |
| 2026-04-26 00:45 | 19.53200 | -81.41131 | 16432 ft | 336 kts | 356° |
| 2026-04-26 00:45 | 19.55568 | -81.41180 | 17681 ft | 345 kts | 355° |
| 2026-04-26 00:46 | 19.57966 | -81.41228 | 18805 ft | 353 kts | 355° |
| 2026-04-26 00:46 | 19.60438 | -81.41278 | 19969 ft | 358 kts | 355° |
| 2026-04-26 00:46 | 19.62941 | -81.41328 | 21130 ft | 362 kts | 354° |
| 2026-04-26 00:46 | 19.65482 | -81.41380 | 22256 ft | 368 kts | 354° |
| 2026-04-26 00:47 | 19.68059 | -81.41433 | 23364 ft | 373 kts | 354° |
| 2026-04-26 00:47 | 19.70676 | -81.41486 | 24261 ft | 379 kts | 354° |
| 2026-04-26 00:47 | 19.73334 | -81.41540 | 25136 ft | 385 kts | 353° |
| 2026-04-26 00:47 | 19.76030 | -81.41596 | 26029 ft | 391 kts | 353° |
| 2026-04-26 00:48 | 19.78770 | -81.41651 | 26897 ft | 397 kts | 353° |
| 2026-04-26 00:48 | 19.81512 | -81.41708 | 27732 ft | 403 kts | 352° |
| 2026-04-26 00:48 | 19.84332 | -81.41765 | 28549 ft | 408 kts | 352° |
| 2026-04-26 00:48 | 19.87195 | -81.41823 | 29370 ft | 414 kts | 352° |
| 2026-04-26 00:49 | 19.90097 | -81.41883 | 30159 ft | 420 kts | 352° |
| 2026-04-26 00:49 | 19.93039 | -81.41942 | 30866 ft | 426 kts | 352° |
| 2026-04-26 00:49 | 19.96018 | -81.42003 | 31527 ft | 431 kts | 351° |
| 2026-04-26 00:49 | 19.99033 | -81.42065 | 32160 ft | 436 kts | 351° |
| 2026-04-26 00:50 | 20.02072 | -81.42214 | 32758 ft | 438 kts | 348° |
| 2026-04-26 00:50 | 20.05126 | -81.42441 | 33443 ft | 440 kts | 348° |
| 2026-04-26 00:50 | 20.08136 | -81.42652 | 34245 ft | 439 kts | 348° |
| 2026-04-26 00:50 | 20.11177 | -81.42851 | 34994 ft | 437 kts | 348° |
| 2026-04-26 00:51 | 20.14210 | -81.43056 | 35732 ft | 436 kts | 348° |
| 2026-04-26 00:51 | 20.17231 | -81.43271 | 36440 ft | 435 kts | 347° |
| 2026-04-26 00:51 | 20.20249 | -81.43483 | 37103 ft | 434 kts | 347° |
| 2026-04-26 00:51 | 20.23258 | -81.43688 | 37725 ft | 433 kts | 347° |
| 2026-04-26 00:52 | 20.26263 | -81.43894 | 38319 ft | 432 kts | 347° |
| 2026-04-26 00:52 | 20.29260 | -81.44103 | 38814 ft | 431 kts | 347° |
| 2026-04-26 00:52 | 20.35367 | -81.44537 | 38917 ft | 450 kts | 347° |
| 2026-04-26 00:53 | 20.41758 | -81.44972 | 38931 ft | 469 kts | 348° |
| 2026-04-26 00:53 | 20.48272 | -81.45422 | 38928 ft | 473 kts | 348° |
| 2026-04-26 00:54 | 20.54843 | -81.45878 | 38931 ft | 473 kts | 347° |
| 2026-04-26 00:54 | 20.61397 | -81.46332 | 38933 ft | 472 kts | 347° |
| 2026-04-26 00:55 | 20.67956 | -81.46790 | 38932 ft | 473 kts | 347° |
| 2026-04-26 00:55 | 20.74516 | -81.47244 | 38933 ft | 470 kts | 347° |
| 2026-04-26 00:56 | 20.80991 | -81.47697 | 38930 ft | 469 kts | 347° |
| 2026-04-26 00:56 | 20.87508 | -81.48151 | 38932 ft | 469 kts | 347° |
| 2026-04-26 00:57 | 20.94018 | -81.48605 | 38927 ft | 468 kts | 347° |
| 2026-04-26 00:57 | 21.00512 | -81.49059 | 38932 ft | 467 kts | 347° |
| 2026-04-26 00:58 | 21.06984 | -81.49511 | 38924 ft | 466 kts | 347° |
| 2026-04-26 00:58 | 21.13403 | -81.49960 | 38927 ft | 465 kts | 347° |
| 2026-04-26 00:59 | 21.19865 | -81.50414 | 38926 ft | 465 kts | 347° |
| 2026-04-26 00:59 | 21.26316 | -81.50865 | 38927 ft | 464 kts | 347° |
| 2026-04-26 01:00 | 21.32760 | -81.51318 | 38930 ft | 464 kts | 347° |
| 2026-04-26 01:00 | 21.39175 | -81.51770 | 38761 ft | 468 kts | 347° |
| 2026-04-26 01:01 | 21.42423 | -81.51999 | 38164 ft | 466 kts | 347° |
| 2026-04-26 01:01 | 21.45624 | -81.52215 | 37514 ft | 455 kts | 347° |
| 2026-04-26 01:01 | 21.48757 | -81.52431 | 36744 ft | 446 kts | 347° |
| 2026-04-26 01:01 | 21.51831 | -81.52654 | 36005 ft | 440 kts | 347° |
| 2026-04-26 01:02 | 21.54867 | -81.52875 | 35295 ft | 436 kts | 347° |
| 2026-04-26 01:02 | 21.57844 | -81.53323 | 34583 ft | 429 kts | 340° |
| 2026-04-26 01:02 | 21.60680 | -81.54135 | 33904 ft | 427 kts | 334° |
| 2026-04-26 01:02 | 21.63429 | -81.55312 | 33172 ft | 423 kts | 328° |
| 2026-04-26 01:03 | 21.66003 | -81.56810 | 32545 ft | 420 kts | 322° |
| 2026-04-26 01:03 | 21.68506 | -81.58444 | 31936 ft | 423 kts | 323° |
| 2026-04-26 01:03 | 21.71038 | -81.60066 | 31345 ft | 425 kts | 323° |
| 2026-04-26 01:03 | 21.73584 | -81.61698 | 30781 ft | 426 kts | 323° |
| 2026-04-26 01:04 | 21.76127 | -81.63346 | 30277 ft | 428 kts | 323° |
| 2026-04-26 01:04 | 21.78684 | -81.65004 | 29738 ft | 429 kts | 323° |
| 2026-04-26 01:04 | 21.81235 | -81.66649 | 29157 ft | 427 kts | 324° |
| 2026-04-26 01:04 | 21.83740 | -81.68265 | 28633 ft | 424 kts | 324° |
| 2026-04-26 01:05 | 21.86260 | -81.69898 | 28125 ft | 422 kts | 324° |
| 2026-04-26 01:05 | 21.88771 | -81.71525 | 27624 ft | 420 kts | 324° |
| 2026-04-26 01:05 | 21.91271 | -81.73143 | 27129 ft | 419 kts | 324° |
| 2026-04-26 01:05 | 21.93762 | -81.74755 | 26638 ft | 417 kts | 324° |
| 2026-04-26 01:06 | 21.96242 | -81.76363 | 26116 ft | 416 kts | 325° |
| 2026-04-26 01:06 | 21.98712 | -81.77965 | 25574 ft | 413 kts | 325° |
| 2026-04-26 01:06 | 22.01171 | -81.79559 | 25043 ft | 411 kts | 325° |
| 2026-04-26 01:06 | 22.03618 | -81.81146 | 24520 ft | 409 kts | 325° |
| 2026-04-26 01:07 | 22.06051 | -81.82726 | 24008 ft | 407 kts | 326° |
| 2026-04-26 01:07 | 22.08475 | -81.84300 | 23497 ft | 406 kts | 326° |
| 2026-04-26 01:07 | 22.10853 | -81.85845 | 22904 ft | 403 kts | 326° |
| 2026-04-26 01:07 | 22.13242 | -81.87397 | 22315 ft | 399 kts | 326° |
| 2026-04-26 01:08 | 22.15606 | -81.88934 | 21738 ft | 395 kts | 326° |
| 2026-04-26 01:08 | 22.17949 | -81.90458 | 21170 ft | 392 kts | 326° |
| 2026-04-26 01:08 | 22.20275 | -81.91972 | 20609 ft | 389 kts | 327° |
| 2026-04-26 01:08 | 22.22582 | -81.93473 | 20062 ft | 385 kts | 327° |
| 2026-04-26 01:09 | 22.24868 | -81.94962 | 19530 ft | 382 kts | 327° |
| 2026-04-26 01:09 | 22.27138 | -81.96440 | 18999 ft | 380 kts | 327° |
| 2026-04-26 01:09 | 22.29389 | -81.97907 | 18479 ft | 377 kts | 327° |
| 2026-04-26 01:09 | 22.31624 | -81.99364 | 17926 ft | 374 kts | 328° |
| 2026-04-26 01:10 | 22.33810 | -82.00790 | 17345 ft | 371 kts | 328° |
| 2026-04-26 01:10 | 22.36013 | -82.02227 | 16778 ft | 369 kts | 328° |
| 2026-04-26 01:10 | 22.38199 | -82.03654 | 16276 ft | 366 kts | 328° |
| 2026-04-26 01:10 | 22.40372 | -82.05072 | 15788 ft | 364 kts | 328° |
| 2026-04-26 01:11 | 22.42535 | -82.06485 | 15310 ft | 362 kts | 328° |
| 2026-04-26 01:11 | 22.44684 | -82.07889 | 14837 ft | 360 kts | 328° |
| 2026-04-26 01:11 | 22.46823 | -82.09287 | 14373 ft | 359 kts | 329° |
| 2026-04-26 01:11 | 22.48955 | -82.10680 | 13916 ft | 357 kts | 329° |
| 2026-04-26 01:12 | 22.51046 | -82.12048 | 13433 ft | 354 kts | 329° |
| 2026-04-26 01:12 | 22.53099 | -82.13393 | 12925 ft | 335 kts | 329° |
| 2026-04-26 01:12 | 22.55040 | -82.14665 | 12416 ft | 318 kts | 329° |
| 2026-04-26 01:12 | 22.56895 | -82.15877 | 11918 ft | 305 kts | 329° |
| 2026-04-26 01:13 | 22.58680 | -82.17045 | 11423 ft | 295 kts | 329° |
| 2026-04-26 01:13 | 22.60408 | -82.18179 | 10937 ft | 287 kts | 330° |
| 2026-04-26 01:13 | 22.62100 | -82.19286 | 10460 ft | 282 kts | 330° |
| 2026-04-26 01:13 | 22.63724 | -82.20353 | 10001 ft | 280 kts | 330° |
| 2026-04-26 01:14 | 22.65386 | -82.21452 | 9507 ft | 280 kts | 328° |
| 2026-04-26 01:14 | 22.66851 | -82.22843 | 8984 ft | 282 kts | 314° |
| 2026-04-26 01:14 | 22.67982 | -82.24545 | 8486 ft | 283 kts | 301° |
| 2026-04-26 01:14 | 22.68817 | -82.26477 | 7994 ft | 283 kts | 296° |
| 2026-04-26 01:15 | 22.69643 | -82.28402 | 7513 ft | 282 kts | 296° |
| 2026-04-26 01:15 | 22.70469 | -82.30315 | 7044 ft | 278 kts | 295° |
| 2026-04-26 01:15 | 22.71273 | -82.32203 | 6574 ft | 274 kts | 295° |
| 2026-04-26 01:15 | 22.72065 | -82.34060 | 6098 ft | 270 kts | 295° |
| 2026-04-26 01:16 | 22.72847 | -82.35896 | 5599 ft | 267 kts | 295° |
| 2026-04-26 01:16 | 22.73626 | -82.37713 | 5115 ft | 265 kts | 295° |
| 2026-04-26 01:16 | 22.74385 | -82.39495 | 4641 ft | 263 kts | 295° |
| 2026-04-26 01:16 | 22.75149 | -82.41285 | 4145 ft | 261 kts | 295° |
| 2026-04-26 01:17 | 22.75898 | -82.43042 | 3656 ft | 249 kts | 295° |
| 2026-04-26 01:17 | 22.76603 | -82.44696 | 3160 ft | 236 kts | 295° |
| 2026-04-26 01:17 | 22.77264 | -82.46251 | 2991 ft | 216 kts | 295° |
| 2026-04-26 01:17 | 22.77881 | -82.47697 | 2979 ft | 210 kts | 296° |
| 2026-04-26 01:18 | 22.78495 | -82.49135 | 2981 ft | 210 kts | 295° |
| 2026-04-26 01:18 | 22.79110 | -82.50576 | 2986 ft | 211 kts | 296° |
| 2026-04-26 01:18 | 22.79964 | -82.51849 | 2976 ft | 206 kts | 319° |
| 2026-04-26 01:18 | 22.81063 | -82.52716 | 2980 ft | 194 kts | 326° |
| 2026-04-26 01:19 | 22.82148 | -82.53563 | 2979 ft | 192 kts | 325° |
| 2026-04-26 01:19 | 22.83227 | -82.54409 | 2982 ft | 190 kts | 326° |
| 2026-04-26 01:19 | 22.84303 | -82.55239 | 2984 ft | 190 kts | 325° |
| 2026-04-26 01:19 | 22.85388 | -82.56044 | 2978 ft | 189 kts | 332° |
| 2026-04-26 01:20 | 22.86652 | -82.56405 | 2879 ft | 192 kts | 357° |
| 2026-04-26 01:20 | 22.87966 | -82.56227 | 2609 ft | 187 kts | 19° |
| 2026-04-26 01:20 | 22.89056 | -82.55567 | 2299 ft | 174 kts | 40° |
| 2026-04-26 01:20 | 22.89807 | -82.54630 | 2017 ft | 158 kts | 57° |
| 2026-04-26 01:21 | 22.90413 | -82.53675 | 1989 ft | 159 kts | 53° |
| 2026-04-26 01:21 | 22.91085 | -82.52720 | 1990 ft | 158 kts | 53° |
| 2026-04-26 01:21 | 22.91727 | -82.51747 | 2002 ft | 160 kts | 55° |
| 2026-04-26 01:21 | 22.92345 | -82.50803 | 2015 ft | 148 kts | 55° |
| 2026-04-26 01:22 | 22.92932 | -82.49926 | 1869 ft | 142 kts | 55° |
| 2026-04-26 01:22 | 22.93500 | -82.49074 | 1692 ft | 136 kts | 55° |
| 2026-04-26 01:22 | 22.94054 | -82.48230 | 1514 ft | 140 kts | 56° |
| 2026-04-26 01:22 | 22.94604 | -82.47409 | 1331 ft | 136 kts | 54° |
| 2026-04-26 01:23 | 22.95148 | -82.46585 | 1152 ft | 131 kts | 56° |
| 2026-04-26 01:23 | 22.95686 | -82.45787 | 979 ft | 132 kts | 54° |
| 2026-04-26 01:23 | 22.96220 | -82.44985 | 809 ft | 133 kts | 54° |
| 2026-04-26 01:23 | 22.96747 | -82.44180 | 626 ft | 129 kts | 54° |
| 2026-04-26 01:24 | 22.97280 | -82.43399 | 451 ft | 128 kts | 54° |
| 2026-04-26 01:24 | 22.97795 | -82.42597 | 263 ft | 130 kts | 54° |
| 2026-04-26 01:24 | 22.98270 | -82.41890 | 218 ft | 98 kts | 54° |
| 2026-04-26 01:24 | 22.98579 | -82.41420 | 210 ft | 36 kts | 55° |
| 2026-04-26 01:25 | 22.98704 | -82.41228 | 214 ft | 30 kts | 54° |
| 2026-04-26 01:25 | 22.98788 | -82.41108 | 214 ft | 15 kts | 33° |
| 2026-04-26 01:25 | 22.98894 | -82.41083 | 210 ft | 4 kts | 8° |
| 2026-04-26 01:25 | 22.98940 | -82.41075 | 211 ft | 9 kts | 9° |
| 2026-04-26 01:26 | 22.98974 | -82.41074 | 217 ft | 8 kts | 338° |
| 2026-04-26 01:26 | 22.98973 | -82.41138 | 216 ft | 12 kts | 235° |
| 2026-04-26 01:26 | 22.98936 | -82.41195 | 211 ft | 7 kts | 234° |
| 2026-04-26 01:26 | 22.98905 | -82.41241 | 211 ft | 4 kts | 234° |
| 2026-04-26 01:27 | 22.98879 | -82.41281 | 215 ft | 9 kts | 233° |
| 2026-04-26 01:27 | 22.98850 | -82.41323 | 216 ft | 12 kts | 233° |
| 2026-04-26 01:27 | 22.98842 | -82.41382 | 215 ft | 8 kts | 316° |
| 2026-04-26 01:27 | 22.98881 | -82.41413 | 211 ft | 6 kts | 332° |
| 2026-04-26 01:28 | 22.98919 | -82.41439 | 211 ft | 0 kts | 325° |
| 2026-04-26 01:28 | 22.98942 | -82.41457 | 216 ft | 7 kts | 321° |
| 2026-04-26 01:28 | 22.98968 | -82.41498 | 214 ft | 8 kts | 268° |
| 2026-04-26 01:28 | 22.98967 | -82.41511 | 211 ft | 6 kts | 261° |
| 2026-04-26 01:29 | 22.98964 | -82.41535 | 211 ft | 3 kts | 263° |
| 2026-04-26 01:29 | 22.98963 | -82.41549 | 211 ft | 0 kts | 264° |